KHYR

Sawyer County Airport

Hayward, Wisconsin, USA
METAR KHYR 100553Z AUTO 22004KT 4SM BR CLR M09/M11 A3019 RMK AO2 SLP245 I1000 I6000 T10941111 11050 21106 400001128 56011
Observed Flight Rules
Dec-10 @ 05:53 UTC (36 minutes ago) Marginal Visual Flight Rules
Wind Visibility Clouds Conditions
220° at 4 knots 4 miles
  • Clear skies
  • Mist
Temperatures Readings
Current -9°C / 16°F
Dewpoint -11°C / 12°F
Humidity 86%
Altimeter 30.19" Hg
Pressure 1024.5 hPa
Elevation 370
METAR KHYR 100553Z AUTO 22004KT 4SM BR CLR M09/M11 A3019 RMK AO2 SLP245 I1000 I6000 T10941111 11050 21106 400001128 56011
Observed Flight Rules
Dec-10 @ 05:53 UTC
(36 minutes ago)
MVFR
Wind Visibility
220° at 4 knots 4 miles
Clouds
  • Clear skies
Conditions
  • Mist
Temperature Dewpoint
-9°C / 16°F -11°C / 12°F
Humidity Altimeter Pressure
86% 30.19" Hg 1024.5 hPa